sensor_id;sensor_type;location;lat;lon;timestamp;temperature;humidity
40077;DHT22;25777;47.824;18.982;2023-07-31T00:00:02;17.70;99.90
40077;DHT22;25777;47.824;18.982;2023-07-31T00:02:28;17.70;99.90
40077;DHT22;25777;47.824;18.982;2023-07-31T00:05:00;17.70;99.90
40077;DHT22;25777;47.824;18.982;2023-07-31T00:07:34;17.60;99.90
40077;DHT22;25777;47.824;18.982;2023-07-31T00:13:04;17.40;99.90
40077;DHT22;25777;47.824;18.982;2023-07-31T00:15:44;17.40;99.90
40077;DHT22;25777;47.824;18.982;2023-07-31T00:18:17;17.40;99.90
40077;DHT22;25777;47.824;18.982;2023-07-31T00:20:45;17.30;99.90
40077;DHT22;25777;47.824;18.982;2023-07-31T00:23:13;17.30;99.90
40077;DHT22;25777;47.824;18.982;2023-07-31T00:25:40;17.30;99.90
40077;DHT22;25777;47.824;18.982;2023-07-31T00:28:16;17.30;99.90
40077;DHT22;25777;47.824;18.982;2023-07-31T00:30:44;17.30;99.90
40077;DHT22;25777;47.824;18.982;2023-07-31T00:33:20;17.20;99.90
40077;DHT22;25777;47.824;18.982;2023-07-31T00:35:45;17.20;99.90
40077;DHT22;25777;47.824;18.982;2023-07-31T00:38:11;17.20;99.90
40077;DHT22;25777;47.824;18.982;2023-07-31T00:40:37;17.20;99.90
40077;DHT22;25777;47.824;18.982;2023-07-31T00:43:05;17.10;99.90
40077;DHT22;25777;47.824;18.982;2023-07-31T00:45:32;17.10;99.90
40077;DHT22;25777;47.824;18.982;2023-07-31T00:48:03;17.20;99.90
40077;DHT22;25777;47.824;18.982;2023-07-31T00:50:33;17.10;99.90
40077;DHT22;25777;47.824;18.982;2023-07-31T00:53:00;17.10;99.90
40077;DHT22;25777;47.824;18.982;2023-07-31T00:55:31;17.10;99.90
40077;DHT22;25777;47.824;18.982;2023-07-31T00:58:04;17.10;99.90
40077;DHT22;25777;47.824;18.982;2023-07-31T01:00:34;17.10;99.90
40077;DHT22;25777;47.824;18.982;2023-07-31T01:03:00;17.10;99.90
40077;DHT22;25777;47.824;18.982;2023-07-31T01:05:56;17.10;99.90
40077;DHT22;25777;47.824;18.982;2023-07-31T01:11:43;17.00;99.90
40077;DHT22;25777;47.824;18.982;2023-07-31T01:14:11;16.90;99.90
40077;DHT22;25777;47.824;18.982;2023-07-31T01:16:42;16.90;99.90
40077;DHT22;25777;47.824;18.982;2023-07-31T01:19:17;16.80;99.90
40077;DHT22;25777;47.824;18.982;2023-07-31T01:27:37;16.70;99.90
40077;DHT22;25777;47.824;18.982;2023-07-31T01:30:22;16.70;99.90
40077;DHT22;25777;47.824;18.982;2023-07-31T01:32:55;16.60;99.90
40077;DHT22;25777;47.824;18.982;2023-07-31T01:35:22;16.60;99.90
40077;DHT22;25777;47.824;18.982;2023-07-31T01:37:48;16.70;99.90
40077;DHT22;25777;47.824;18.982;2023-07-31T01:40:15;16.60;99.90
40077;DHT22;25777;47.824;18.982;2023-07-31T01:42:45;16.60;99.90
40077;DHT22;25777;47.824;18.982;2023-07-31T01:45:14;16.60;99.90
40077;DHT22;25777;47.824;18.982;2023-07-31T01:47:42;16.70;99.90
40077;DHT22;25777;47.824;18.982;2023-07-31T01:50:10;16.70;99.90
40077;DHT22;25777;47.824;18.982;2023-07-31T01:52:35;16.70;99.90
40077;DHT22;25777;47.824;18.982;2023-07-31T01:55:05;16.60;99.90
40077;DHT22;25777;47.824;18.982;2023-07-31T01:57:31;16.60;99.90
40077;DHT22;25777;47.824;18.982;2023-07-31T01:59:59;16.60;99.90
40077;DHT22;25777;47.824;18.982;2023-07-31T02:02:25;16.60;99.90
40077;DHT22;25777;47.824;18.982;2023-07-31T02:04:51;16.60;99.90
40077;DHT22;25777;47.824;18.982;2023-07-31T02:07:17;16.60;99.90
40077;DHT22;25777;47.824;18.982;2023-07-31T02:09:43;16.50;99.90
40077;DHT22;25777;47.824;18.982;2023-07-31T02:12:13;16.50;99.90
40077;DHT22;25777;47.824;18.982;2023-07-31T02:14:48;16.50;99.90
40077;DHT22;25777;47.824;18.982;2023-07-31T02:17:17;16.50;99.90
40077;DHT22;25777;47.824;18.982;2023-07-31T02:19:43;16.50;99.90
40077;DHT22;25777;47.824;18.982;2023-07-31T02:22:09;16.40;99.90
40077;DHT22;25777;47.824;18.982;2023-07-31T02:24:35;16.40;99.90
40077;DHT22;25777;47.824;18.982;2023-07-31T02:27:06;16.50;99.90
40077;DHT22;25777;47.824;18.982;2023-07-31T02:29:31;16.60;99.90
40077;DHT22;25777;47.824;18.982;2023-07-31T02:32:00;16.70;99.90
40077;DHT22;25777;47.824;18.982;2023-07-31T02:34:27;16.80;99.90
40077;DHT22;25777;47.824;18.982;2023-07-31T02:36:54;16.90;99.90
40077;DHT22;25777;47.824;18.982;2023-07-31T02:39:28;17.00;99.90
40077;DHT22;25777;47.824;18.982;2023-07-31T02:42:02;17.00;99.90
40077;DHT22;25777;47.824;18.982;2023-07-31T02:44:28;17.00;99.90
40077;DHT22;25777;47.824;18.982;2023-07-31T02:46:56;17.10;99.90
40077;DHT22;25777;47.824;18.982;2023-07-31T02:49:23;17.10;99.90
40077;DHT22;25777;47.824;18.982;2023-07-31T02:51:50;17.10;99.90
40077;DHT22;25777;47.824;18.982;2023-07-31T02:54:18;17.20;99.90
40077;DHT22;25777;47.824;18.982;2023-07-31T02:56:48;17.20;99.90
40077;DHT22;25777;47.824;18.982;2023-07-31T02:59:16;17.20;99.90
40077;DHT22;25777;47.824;18.982;2023-07-31T03:01:43;17.20;99.90
40077;DHT22;25777;47.824;18.982;2023-07-31T03:04:09;17.30;99.90
40077;DHT22;25777;47.824;18.982;2023-07-31T03:06:35;17.30;99.90
40077;DHT22;25777;47.824;18.982;2023-07-31T03:09:01;17.40;99.90
40077;DHT22;25777;47.824;18.982;2023-07-31T03:11:27;17.40;99.90
40077;DHT22;25777;47.824;18.982;2023-07-31T03:13:57;17.50;99.90
40077;DHT22;25777;47.824;18.982;2023-07-31T03:16:25;17.50;99.90
40077;DHT22;25777;47.824;18.982;2023-07-31T03:18:54;17.50;99.90
40077;DHT22;25777;47.824;18.982;2023-07-31T03:21:22;17.50;99.90
40077;DHT22;25777;47.824;18.982;2023-07-31T03:23:50;17.50;99.90
40077;DHT22;25777;47.824;18.982;2023-07-31T03:26:16;17.50;99.90
40077;DHT22;25777;47.824;18.982;2023-07-31T03:28:42;17.40;99.90
40077;DHT22;25777;47.824;18.982;2023-07-31T03:31:09;17.40;99.90
40077;DHT22;25777;47.824;18.982;2023-07-31T03:33:37;17.40;99.90
40077;DHT22;25777;47.824;18.982;2023-07-31T03:36:03;17.40;99.90
40077;DHT22;25777;47.824;18.982;2023-07-31T03:38:30;17.40;99.90
40077;DHT22;25777;47.824;18.982;2023-07-31T03:40:56;17.40;99.90
40077;DHT22;25777;47.824;18.982;2023-07-31T03:43:23;17.40;99.90
40077;DHT22;25777;47.824;18.982;2023-07-31T03:45:49;17.40;99.90
40077;DHT22;25777;47.824;18.982;2023-07-31T03:48:15;17.40;99.90
40077;DHT22;25777;47.824;18.982;2023-07-31T03:50:42;17.40;99.90
40077;DHT22;25777;47.824;18.982;2023-07-31T03:53:14;17.40;99.90
40077;DHT22;25777;47.824;18.982;2023-07-31T03:55:41;17.40;99.90
40077;DHT22;25777;47.824;18.982;2023-07-31T03:58:08;17.30;99.90
40077;DHT22;25777;47.824;18.982;2023-07-31T04:00:34;17.30;99.90
40077;DHT22;25777;47.824;18.982;2023-07-31T04:03:02;17.30;99.90
40077;DHT22;25777;47.824;18.982;2023-07-31T04:05:30;17.30;99.90
40077;DHT22;25777;47.824;18.982;2023-07-31T04:07:56;17.20;99.90
40077;DHT22;25777;47.824;18.982;2023-07-31T04:10:21;17.30;99.90
40077;DHT22;25777;47.824;18.982;2023-07-31T04:12:48;17.30;99.90
40077;DHT22;25777;47.824;18.982;2023-07-31T04:15:14;17.30;99.90
40077;DHT22;25777;47.824;18.982;2023-07-31T04:17:40;17.40;99.90
40077;DHT22;25777;47.824;18.982;2023-07-31T04:20:08;17.30;99.90
40077;DHT22;25777;47.824;18.982;2023-07-31T04:22:35;17.30;99.90
40077;DHT22;25777;47.824;18.982;2023-07-31T04:25:02;17.30;99.90
40077;DHT22;25777;47.824;18.982;2023-07-31T04:27:29;17.30;99.90
40077;DHT22;25777;47.824;18.982;2023-07-31T04:29:56;17.30;99.90
40077;DHT22;25777;47.824;18.982;2023-07-31T04:32:22;17.30;99.90
40077;DHT22;25777;47.824;18.982;2023-07-31T04:34:48;17.30;99.90
40077;DHT22;25777;47.824;18.982;2023-07-31T04:37:14;17.30;99.90
40077;DHT22;25777;47.824;18.982;2023-07-31T04:39:42;17.30;99.90
40077;DHT22;25777;47.824;18.982;2023-07-31T04:42:08;17.20;99.90
40077;DHT22;25777;47.824;18.982;2023-07-31T04:44:34;17.20;99.90
40077;DHT22;25777;47.824;18.982;2023-07-31T04:47:06;17.20;99.90
40077;DHT22;25777;47.824;18.982;2023-07-31T04:49:32;17.20;99.90
40077;DHT22;25777;47.824;18.982;2023-07-31T04:51:59;17.20;99.90
40077;DHT22;25777;47.824;18.982;2023-07-31T04:54:25;17.10;99.90
40077;DHT22;25777;47.824;18.982;2023-07-31T04:56:51;17.20;99.90
40077;DHT22;25777;47.824;18.982;2023-07-31T04:59:18;17.20;99.90
40077;DHT22;25777;47.824;18.982;2023-07-31T05:01:44;17.20;99.90
40077;DHT22;25777;47.824;18.982;2023-07-31T05:04:13;17.20;99.90
40077;DHT22;25777;47.824;18.982;2023-07-31T05:06:40;17.20;99.90
40077;DHT22;25777;47.824;18.982;2023-07-31T05:09:06;17.20;99.90
40077;DHT22;25777;47.824;18.982;2023-07-31T05:11:33;17.20;99.90
40077;DHT22;25777;47.824;18.982;2023-07-31T05:14:00;17.30;99.90
40077;DHT22;25777;47.824;18.982;2023-07-31T05:16:26;17.40;99.90
40077;DHT22;25777;47.824;18.982;2023-07-31T05:18:52;17.40;99.90
40077;DHT22;25777;47.824;18.982;2023-07-31T05:21:19;17.50;99.90
40077;DHT22;25777;47.824;18.982;2023-07-31T05:23:47;17.60;99.90
40077;DHT22;25777;47.824;18.982;2023-07-31T05:26:15;17.70;99.90
40077;DHT22;25777;47.824;18.982;2023-07-31T05:28:42;17.70;99.90
40077;DHT22;25777;47.824;18.982;2023-07-31T05:31:08;17.70;99.90
40077;DHT22;25777;47.824;18.982;2023-07-31T05:33:35;17.80;99.90
40077;DHT22;25777;47.824;18.982;2023-07-31T05:36:02;17.90;99.90
40077;DHT22;25777;47.824;18.982;2023-07-31T05:38:28;17.90;99.90
40077;DHT22;25777;47.824;18.982;2023-07-31T05:40:54;18.00;99.90
40077;DHT22;25777;47.824;18.982;2023-07-31T05:43:20;18.10;99.90
40077;DHT22;25777;47.824;18.982;2023-07-31T05:45:46;18.10;99.90
40077;DHT22;25777;47.824;18.982;2023-07-31T05:48:12;18.00;99.90
40077;DHT22;25777;47.824;18.982;2023-07-31T05:50:38;17.90;99.90
40077;DHT22;25777;47.824;18.982;2023-07-31T05:53:06;17.80;99.90
40077;DHT22;25777;47.824;18.982;2023-07-31T05:55:32;17.70;99.90
40077;DHT22;25777;47.824;18.982;2023-07-31T05:57:59;17.70;99.90
40077;DHT22;25777;47.824;18.982;2023-07-31T06:00:27;17.80;99.90
40077;DHT22;25777;47.824;18.982;2023-07-31T06:02:55;17.80;99.90
40077;DHT22;25777;47.824;18.982;2023-07-31T06:05:21;17.90;99.90
40077;DHT22;25777;47.824;18.982;2023-07-31T06:07:48;18.00;99.90
40077;DHT22;25777;47.824;18.982;2023-07-31T06:10:16;18.20;99.90
40077;DHT22;25777;47.824;18.982;2023-07-31T06:12:42;18.40;99.90
40077;DHT22;25777;47.824;18.982;2023-07-31T06:15:08;18.50;99.90
40077;DHT22;25777;47.824;18.982;2023-07-31T06:17:34;18.70;99.90
40077;DHT22;25777;47.824;18.982;2023-07-31T06:20:01;18.80;99.90
40077;DHT22;25777;47.824;18.982;2023-07-31T06:22:32;19.00;99.90
40077;DHT22;25777;47.824;18.982;2023-07-31T06:24:59;19.10;99.90
40077;DHT22;25777;47.824;18.982;2023-07-31T06:27:26;19.10;99.90
40077;DHT22;25777;47.824;18.982;2023-07-31T06:29:53;19.10;99.90
40077;DHT22;25777;47.824;18.982;2023-07-31T06:32:19;19.10;99.90
40077;DHT22;25777;47.824;18.982;2023-07-31T06:34:46;19.10;99.90
40077;DHT22;25777;47.824;18.982;2023-07-31T06:37:14;19.20;99.90
40077;DHT22;25777;47.824;18.982;2023-07-31T06:39:40;19.30;99.90
40077;DHT22;25777;47.824;18.982;2023-07-31T06:42:06;19.40;99.90
40077;DHT22;25777;47.824;18.982;2023-07-31T06:44:33;19.50;99.90
40077;DHT22;25777;47.824;18.982;2023-07-31T06:46:58;19.60;99.90
40077;DHT22;25777;47.824;18.982;2023-07-31T06:49:25;19.70;99.90
40077;DHT22;25777;47.824;18.982;2023-07-31T06:51:51;19.70;99.90
40077;DHT22;25777;47.824;18.982;2023-07-31T06:54:20;19.80;99.90
40077;DHT22;25777;47.824;18.982;2023-07-31T06:56:48;19.90;99.90
40077;DHT22;25777;47.824;18.982;2023-07-31T06:59:14;20.00;99.90
40077;DHT22;25777;47.824;18.982;2023-07-31T07:01:41;20.10;99.90
40077;DHT22;25777;47.824;18.982;2023-07-31T07:04:08;20.20;99.90
40077;DHT22;25777;47.824;18.982;2023-07-31T07:06:35;20.30;99.90
40077;DHT22;25777;47.824;18.982;2023-07-31T07:09:02;20.30;99.90
40077;DHT22;25777;47.824;18.982;2023-07-31T07:11:30;20.40;99.90
40077;DHT22;25777;47.824;18.982;2023-07-31T07:14:06;20.40;99.90
40077;DHT22;25777;47.824;18.982;2023-07-31T07:16:33;20.50;99.90
40077;DHT22;25777;47.824;18.982;2023-07-31T07:18:59;20.50;99.90
40077;DHT22;25777;47.824;18.982;2023-07-31T07:21:25;20.60;99.90
40077;DHT22;25777;47.824;18.982;2023-07-31T07:23:55;20.70;99.90
40077;DHT22;25777;47.824;18.982;2023-07-31T07:26:27;20.80;99.90
40077;DHT22;25777;47.824;18.982;2023-07-31T07:28:52;21.00;99.90
40077;DHT22;25777;47.824;18.982;2023-07-31T07:31:18;21.10;99.90
40077;DHT22;25777;47.824;18.982;2023-07-31T07:33:45;21.20;99.90
40077;DHT22;25777;47.824;18.982;2023-07-31T07:36:14;21.10;99.90
40077;DHT22;25777;47.824;18.982;2023-07-31T07:38:42;20.90;99.90
40077;DHT22;25777;47.824;18.982;2023-07-31T07:41:08;21.00;99.90
40077;DHT22;25777;47.824;18.982;2023-07-31T07:43:36;21.10;99.90
40077;DHT22;25777;47.824;18.982;2023-07-31T07:46:02;21.20;99.90
40077;DHT22;25777;47.824;18.982;2023-07-31T07:48:30;21.30;99.90
40077;DHT22;25777;47.824;18.982;2023-07-31T07:50:56;21.40;99.90
40077;DHT22;25777;47.824;18.982;2023-07-31T07:53:22;21.50;99.90
40077;DHT22;25777;47.824;18.982;2023-07-31T07:55:48;21.60;99.50
40077;DHT22;25777;47.824;18.982;2023-07-31T07:58:21;21.60;98.10
40077;DHT22;25777;47.824;18.982;2023-07-31T08:00:53;21.80;98.90
40077;DHT22;25777;47.824;18.982;2023-07-31T08:03:29;21.90;98.10
40077;DHT22;25777;47.824;18.982;2023-07-31T08:06:07;22.10;98.80
40077;DHT22;25777;47.824;18.982;2023-07-31T08:08:35;22.00;97.40
40077;DHT22;25777;47.824;18.982;2023-07-31T08:11:06;22.20;96.80
40077;DHT22;25777;47.824;18.982;2023-07-31T08:13:33;22.30;96.60
40077;DHT22;25777;47.824;18.982;2023-07-31T08:15:59;22.40;94.40
40077;DHT22;25777;47.824;18.982;2023-07-31T08:18:25;22.20;95.10
40077;DHT22;25777;47.824;18.982;2023-07-31T08:20:51;22.30;95.50
40077;DHT22;25777;47.824;18.982;2023-07-31T08:23:17;22.40;94.10
40077;DHT22;25777;47.824;18.982;2023-07-31T08:25:43;22.30;94.90
40077;DHT22;25777;47.824;18.982;2023-07-31T08:28:15;22.30;94.30
40077;DHT22;25777;47.824;18.982;2023-07-31T08:30:41;22.50;94.10
40077;DHT22;25777;47.824;18.982;2023-07-31T08:33:09;22.50;95.10
40077;DHT22;25777;47.824;18.982;2023-07-31T08:35:36;22.80;93.80
40077;DHT22;25777;47.824;18.982;2023-07-31T08:38:02;22.90;93.00
40077;DHT22;25777;47.824;18.982;2023-07-31T08:40:29;23.10;93.80
40077;DHT22;25777;47.824;18.982;2023-07-31T08:42:56;23.50;94.10
40077;DHT22;25777;47.824;18.982;2023-07-31T08:45:24;23.60;92.80
40077;DHT22;25777;47.824;18.982;2023-07-31T08:47:51;23.30;90.60
40077;DHT22;25777;47.824;18.982;2023-07-31T08:50:22;23.10;91.30
40077;DHT22;25777;47.824;18.982;2023-07-31T08:52:50;22.80;92.30
40077;DHT22;25777;47.824;18.982;2023-07-31T08:55:17;23.10;93.20
40077;DHT22;25777;47.824;18.982;2023-07-31T08:57:53;23.30;90.90
40077;DHT22;25777;47.824;18.982;2023-07-31T09:00:20;23.30;90.90
40077;DHT22;25777;47.824;18.982;2023-07-31T09:03:01;23.50;92.30
40077;DHT22;25777;47.824;18.982;2023-07-31T09:05:29;23.80;90.20
40077;DHT22;25777;47.824;18.982;2023-07-31T09:07:58;23.90;91.30
40077;DHT22;25777;47.824;18.982;2023-07-31T09:10:24;24.20;89.30
40077;DHT22;25777;47.824;18.982;2023-07-31T09:12:55;24.20;87.40
40077;DHT22;25777;47.824;18.982;2023-07-31T09:15:23;24.50;86.50
40077;DHT22;25777;47.824;18.982;2023-07-31T09:17:59;24.20;84.80
40077;DHT22;25777;47.824;18.982;2023-07-31T09:20:29;24.60;88.20
40077;DHT22;25777;47.824;18.982;2023-07-31T09:22:55;24.70;85.80
40077;DHT22;25777;47.824;18.982;2023-07-31T09:25:23;24.80;85.10
40077;DHT22;25777;47.824;18.982;2023-07-31T09:28:01;24.50;84.20
40077;DHT22;25777;47.824;18.982;2023-07-31T09:30:27;24.70;82.00
40077;DHT22;25777;47.824;18.982;2023-07-31T09:33:06;24.70;85.40
40077;DHT22;25777;47.824;18.982;2023-07-31T09:35:38;24.70;82.00
40077;DHT22;25777;47.824;18.982;2023-07-31T09:38:11;24.30;82.60
40077;DHT22;25777;47.824;18.982;2023-07-31T09:40:41;24.30;84.00
40077;DHT22;25777;47.824;18.982;2023-07-31T09:43:13;24.50;84.80
40077;DHT22;25777;47.824;18.982;2023-07-31T09:45:43;24.90;85.10
40077;DHT22;25777;47.824;18.982;2023-07-31T09:48:14;24.80;81.10
40077;DHT22;25777;47.824;18.982;2023-07-31T09:50:45;24.40;82.60
40077;DHT22;25777;47.824;18.982;2023-07-31T09:53:11;24.60;83.40
40077;DHT22;25777;47.824;18.982;2023-07-31T09:55:39;24.90;80.60
40077;DHT22;25777;47.824;18.982;2023-07-31T09:58:09;24.80;81.60
40077;DHT22;25777;47.824;18.982;2023-07-31T10:00:37;25.20;80.30
40077;DHT22;25777;47.824;18.982;2023-07-31T10:03:09;25.30;80.80
40077;DHT22;25777;47.824;18.982;2023-07-31T10:05:40;25.10;79.40
40077;DHT22;25777;47.824;18.982;2023-07-31T10:08:10;25.00;79.00
40077;DHT22;25777;47.824;18.982;2023-07-31T10:10:44;24.90;82.90
40077;DHT22;25777;47.824;18.982;2023-07-31T10:13:14;25.10;79.90
40077;DHT22;25777;47.824;18.982;2023-07-31T10:15:40;24.40;80.80
40077;DHT22;25777;47.824;18.982;2023-07-31T10:18:08;24.80;83.70
40077;DHT22;25777;47.824;18.982;2023-07-31T10:20:41;25.50;83.10
40077;DHT22;25777;47.824;18.982;2023-07-31T10:23:07;25.70;79.90
40077;DHT22;25777;47.824;18.982;2023-07-31T10:25:34;25.80;78.50
40077;DHT22;25777;47.824;18.982;2023-07-31T10:28:01;25.80;77.00
40077;DHT22;25777;47.824;18.982;2023-07-31T10:30:30;25.90;75.40
40077;DHT22;25777;47.824;18.982;2023-07-31T10:32:57;25.90;75.80
40077;DHT22;25777;47.824;18.982;2023-07-31T10:35:27;25.40;77.30
40077;DHT22;25777;47.824;18.982;2023-07-31T10:38:03;25.50;76.00
40077;DHT22;25777;47.824;18.982;2023-07-31T10:40:34;26.00;75.80
40077;DHT22;25777;47.824;18.982;2023-07-31T10:43:33;26.20;78.30
40077;DHT22;25777;47.824;18.982;2023-07-31T10:45:59;25.80;74.60
40077;DHT22;25777;47.824;18.982;2023-07-31T10:48:33;26.40;74.20
40077;DHT22;25777;47.824;18.982;2023-07-31T10:51:12;26.30;72.30
40077;DHT22;25777;47.824;18.982;2023-07-31T10:53:42;26.30;72.20
40077;DHT22;25777;47.824;18.982;2023-07-31T10:56:10;26.10;72.10
40077;DHT22;25777;47.824;18.982;2023-07-31T10:58:46;26.50;71.00
40077;DHT22;25777;47.824;18.982;2023-07-31T11:01:52;26.50;71.30
40077;DHT22;25777;47.824;18.982;2023-07-31T11:04:29;27.00;69.90
40077;DHT22;25777;47.824;18.982;2023-07-31T11:07:01;27.10;70.10
40077;DHT22;25777;47.824;18.982;2023-07-31T11:09:33;26.30;70.90
40077;DHT22;25777;47.824;18.982;2023-07-31T11:12:00;26.70;69.10
40077;DHT22;25777;47.824;18.982;2023-07-31T11:14:30;26.80;69.60
40077;DHT22;25777;47.824;18.982;2023-07-31T11:17:06;27.00;67.40
40077;DHT22;25777;47.824;18.982;2023-07-31T11:19:38;27.10;68.70
40077;DHT22;25777;47.824;18.982;2023-07-31T11:22:13;27.00;68.70
40077;DHT22;25777;47.824;18.982;2023-07-31T11:24:39;26.80;68.00
40077;DHT22;25777;47.824;18.982;2023-07-31T11:27:07;26.40;69.00
40077;DHT22;25777;47.824;18.982;2023-07-31T11:29:34;26.20;70.20
40077;DHT22;25777;47.824;18.982;2023-07-31T11:32:01;26.70;69.90
40077;DHT22;25777;47.824;18.982;2023-07-31T11:34:29;27.00;70.70
40077;DHT22;25777;47.824;18.982;2023-07-31T11:36:55;27.00;67.10
40077;DHT22;25777;47.824;18.982;2023-07-31T11:39:25;27.20;68.30
40077;DHT22;25777;47.824;18.982;2023-07-31T11:41:59;27.20;68.70
40077;DHT22;25777;47.824;18.982;2023-07-31T11:44:38;27.00;68.00
40077;DHT22;25777;47.824;18.982;2023-07-31T11:47:04;26.80;69.20
40077;DHT22;25777;47.824;18.982;2023-07-31T11:49:37;26.90;66.90
40077;DHT22;25777;47.824;18.982;2023-07-31T11:52:03;26.80;69.80
40077;DHT22;25777;47.824;18.982;2023-07-31T11:54:30;27.20;66.20
40077;DHT22;25777;47.824;18.982;2023-07-31T11:56:56;26.90;67.80
40077;DHT22;25777;47.824;18.982;2023-07-31T11:59:23;26.70;69.00
40077;DHT22;25777;47.824;18.982;2023-07-31T12:01:50;26.70;68.40
40077;DHT22;25777;47.824;18.982;2023-07-31T12:04:21;26.60;69.20
40077;DHT22;25777;47.824;18.982;2023-07-31T12:06:48;26.70;67.30
40077;DHT22;25777;47.824;18.982;2023-07-31T12:09:20;26.90;65.70
40077;DHT22;25777;47.824;18.982;2023-07-31T12:11:47;26.80;64.30
40077;DHT22;25777;47.824;18.982;2023-07-31T12:14:29;26.60;65.20
40077;DHT22;25777;47.824;18.982;2023-07-31T12:17:08;26.90;66.90
40077;DHT22;25777;47.824;18.982;2023-07-31T12:19:34;26.80;67.10
40077;DHT22;25777;47.824;18.982;2023-07-31T12:22:16;27.10;66.00
40077;DHT22;25777;47.824;18.982;2023-07-31T12:24:45;27.20;63.30
40077;DHT22;25777;47.824;18.982;2023-07-31T12:27:14;27.40;66.20
40077;DHT22;25777;47.824;18.982;2023-07-31T12:29:42;27.10;64.70
40077;DHT22;25777;47.824;18.982;2023-07-31T12:32:22;27.00;63.20
40077;DHT22;25777;47.824;18.982;2023-07-31T12:34:49;26.70;64.20
40077;DHT22;25777;47.824;18.982;2023-07-31T12:37:16;26.90;66.00
40077;DHT22;25777;47.824;18.982;2023-07-31T12:39:49;26.90;65.80
40077;DHT22;25777;47.824;18.982;2023-07-31T12:42:21;26.90;65.30
40077;DHT22;25777;47.824;18.982;2023-07-31T12:44:52;27.30;65.30
40077;DHT22;25777;47.824;18.982;2023-07-31T12:47:19;27.10;62.70
40077;DHT22;25777;47.824;18.982;2023-07-31T12:49:51;27.40;64.60
40077;DHT22;25777;47.824;18.982;2023-07-31T12:52:17;27.80;64.10
40077;DHT22;25777;47.824;18.982;2023-07-31T12:54:44;27.90;62.50
40077;DHT22;25777;47.824;18.982;2023-07-31T12:57:11;27.70;64.40
40077;DHT22;25777;47.824;18.982;2023-07-31T12:59:39;27.50;62.90
40077;DHT22;25777;47.824;18.982;2023-07-31T13:02:05;27.30;67.10
40077;DHT22;25777;47.824;18.982;2023-07-31T13:04:43;27.40;63.60
40077;DHT22;25777;47.824;18.982;2023-07-31T13:07:09;27.40;63.10
40077;DHT22;25777;47.824;18.982;2023-07-31T13:09:37;27.00;61.30
40077;DHT22;25777;47.824;18.982;2023-07-31T13:12:03;27.20;64.90
40077;DHT22;25777;47.824;18.982;2023-07-31T13:14:33;27.60;64.00
40077;DHT22;25777;47.824;18.982;2023-07-31T13:16:58;27.60;64.30
40077;DHT22;25777;47.824;18.982;2023-07-31T13:19:27;27.60;61.80
40077;DHT22;25777;47.824;18.982;2023-07-31T13:22:15;27.50;65.30
40077;DHT22;25777;47.824;18.982;2023-07-31T13:24:43;28.10;61.60
40077;DHT22;25777;47.824;18.982;2023-07-31T13:27:10;27.80;60.80
40077;DHT22;25777;47.824;18.982;2023-07-31T13:29:44;27.40;58.30
40077;DHT22;25777;47.824;18.982;2023-07-31T13:32:12;27.20;62.80
40077;DHT22;25777;47.824;18.982;2023-07-31T13:34:38;26.80;61.70
40077;DHT22;25777;47.824;18.982;2023-07-31T13:37:04;27.50;62.70
40077;DHT22;25777;47.824;18.982;2023-07-31T13:39:44;27.50;63.00
40077;DHT22;25777;47.824;18.982;2023-07-31T13:42:15;27.40;60.30
40077;DHT22;25777;47.824;18.982;2023-07-31T13:44:45;27.60;63.70
40077;DHT22;25777;47.824;18.982;2023-07-31T13:47:10;27.90;62.70
40077;DHT22;25777;47.824;18.982;2023-07-31T13:49:37;27.90;62.20
40077;DHT22;25777;47.824;18.982;2023-07-31T13:52:05;27.90;63.90
40077;DHT22;25777;47.824;18.982;2023-07-31T13:54:40;27.80;61.40
40077;DHT22;25777;47.824;18.982;2023-07-31T13:57:06;27.60;60.60
40077;DHT22;25777;47.824;18.982;2023-07-31T13:59:34;27.40;62.60
40077;DHT22;25777;47.824;18.982;2023-07-31T14:02:13;27.70;62.40
40077;DHT22;25777;47.824;18.982;2023-07-31T14:04:40;27.80;59.60
40077;DHT22;25777;47.824;18.982;2023-07-31T14:07:31;27.50;61.40
40077;DHT22;25777;47.824;18.982;2023-07-31T14:09:57;27.10;62.30
40077;DHT22;25777;47.824;18.982;2023-07-31T14:12:26;26.70;64.70
40077;DHT22;25777;47.824;18.982;2023-07-31T14:14:57;26.50;63.80
40077;DHT22;25777;47.824;18.982;2023-07-31T14:17:24;26.40;61.80
40077;DHT22;25777;47.824;18.982;2023-07-31T14:19:50;26.40;62.70
40077;DHT22;25777;47.824;18.982;2023-07-31T14:22:30;26.50;62.80
40077;DHT22;25777;47.824;18.982;2023-07-31T14:25:05;26.30;63.40
40077;DHT22;25777;47.824;18.982;2023-07-31T14:27:32;26.40;63.60
40077;DHT22;25777;47.824;18.982;2023-07-31T14:30:05;26.00;63.10
40077;DHT22;25777;47.824;18.982;2023-07-31T14:32:36;26.00;66.00
40077;DHT22;25777;47.824;18.982;2023-07-31T14:35:03;26.30;64.50
40077;DHT22;25777;47.824;18.982;2023-07-31T14:37:51;26.40;63.20
40077;DHT22;25777;47.824;18.982;2023-07-31T14:40:25;26.20;60.50
40077;DHT22;25777;47.824;18.982;2023-07-31T14:43:00;26.10;62.80
40077;DHT22;25777;47.824;18.982;2023-07-31T14:45:34;26.10;62.80
40077;DHT22;25777;47.824;18.982;2023-07-31T14:48:02;26.40;62.80
40077;DHT22;25777;47.824;18.982;2023-07-31T14:50:28;26.20;62.40
40077;DHT22;25777;47.824;18.982;2023-07-31T14:52:56;26.00;63.80
40077;DHT22;25777;47.824;18.982;2023-07-31T14:55:29;25.90;62.80
40077;DHT22;25777;47.824;18.982;2023-07-31T14:58:03;25.90;62.60
40077;DHT22;25777;47.824;18.982;2023-07-31T15:00:35;25.80;64.70
40077;DHT22;25777;47.824;18.982;2023-07-31T15:03:08;25.60;64.40
40077;DHT22;25777;47.824;18.982;2023-07-31T15:05:46;25.30;65.60
40077;DHT22;25777;47.824;18.982;2023-07-31T15:08:19;25.20;68.30
40077;DHT22;25777;47.824;18.982;2023-07-31T15:10:45;25.20;64.60
40077;DHT22;25777;47.824;18.982;2023-07-31T15:13:11;24.80;69.10
40077;DHT22;25777;47.824;18.982;2023-07-31T15:15:41;24.70;66.90
40077;DHT22;25777;47.824;18.982;2023-07-31T15:18:18;24.80;67.40
40077;DHT22;25777;47.824;18.982;2023-07-31T15:20:51;25.00;66.20
40077;DHT22;25777;47.824;18.982;2023-07-31T15:23:17;24.90;65.80
40077;DHT22;25777;47.824;18.982;2023-07-31T15:25:44;25.10;67.30
40077;DHT22;25777;47.824;18.982;2023-07-31T15:28:09;25.20;68.20
40077;DHT22;25777;47.824;18.982;2023-07-31T15:30:36;25.30;63.30
40077;DHT22;25777;47.824;18.982;2023-07-31T15:33:04;25.30;65.80
40077;DHT22;25777;47.824;18.982;2023-07-31T15:35:31;25.20;65.90
40077;DHT22;25777;47.824;18.982;2023-07-31T15:38:02;25.10;63.80